Home > Products > Valid Products > TAF

000
FTUS43 KUNR 221100
TAFGCC
TAF
KGCC 221120Z 2212/2312 28008KT P6SM SCT200
     FM222100 21009KT P6SM SKC=



000
FTUS43 KUNR 221100
TAFRAP
TAF
KRAP 221120Z 2212/2312 36015KT P6SM BKN200
     FM222300 35005KT P6SM SKC=



000
FTUS43 KUNR 220500
TAFGCC
TAF
KGCC 220520Z 2206/2306 30014KT P6SM SCT100
     FM221200 29010KT P6SM SCT200=



000
FTUS43 KUNR 220500
TAFRAP
TAF
KRAP 220520Z 2206/2306 20011KT P6SM SCT100
     FM220800 33015KT P6SM SCT150=



000
FTUS43 KUNR 220500
TAFGCC
TAF
KGCC 220520Z 2206/2306 30014KT P6SM SCT100
     FM221200 29010KT P6SM SCT200=



000
FTUS43 KUNR 220500
TAFRAP
TAF
KRAP 220520Z 2206/2306 20011KT P6SM SCT100
     FM220800 33015KT P6SM SCT150=



000
FTUS43 KUNR 220400 AAA
TAFGCC
TAF AMD
KGCC 220400Z 2204/2224 24015G25KT P6SM BKN150
     FM220500 30014KT P6SM BKN200
     FM221000 29010KT P6SM SCT200=



000
FTUS43 KUNR 220400 AAA
TAFGCC
TAF AMD
KGCC 220400Z 2204/2224 24015G25KT P6SM BKN150
     FM220500 30014KT P6SM BKN200
     FM221000 29010KT P6SM SCT200=



000
FTUS43 KUNR 212300
TAFGCC
TAF
KGCC 212328Z 2200/2224 24015G25KT P6SM BKN150
     FM220400 30014KT P6SM BKN200
     FM221000 29010KT P6SM SCT200=



000
FTUS43 KUNR 212300
TAFRAP
TAF
KRAP 212328Z 2200/2224 18012KT P6SM SCT100
     FM220800 34015KT P6SM SCT150=



000
FTUS43 KUNR 212300
TAFRAP
TAF
KRAP 212328Z 2200/2224 18012KT P6SM SCT100
     FM220800 34015KT P6SM SCT150=



000
FTUS43 KUNR 212300
TAFGCC
TAF
KGCC 212328Z 2200/2224 24015G25KT P6SM BKN150
     FM220400 30014KT P6SM BKN200
     FM221000 29010KT P6SM SCT200=



000
FTUS43 KUNR 211700
TAFGCC
TAF
KGCC 211720Z 2118/2218 22022G32KT P6SM SCT200
     FM220000 22012KT P6SM BKN200
     FM220500 30014KT P6SM BKN200=



000
FTUS43 KUNR 211700
TAFRAP
TAF
KRAP 211720Z 2118/2218 18014G22KT P6SM SCT200
     FM220000 20008KT P6SM SCT200
     FM220900 34015KT P6SM BKN200=



000
FTUS43 KUNR 211100
TAFGCC
TAF
KGCC 211120Z 2112/2212 20016G26KT P6SM SKC
     FM211600 21022G32KT P6SM SCT200
     FM220300 30010KT P6SM BKN200=



000
FTUS43 KUNR 211100
TAFRAP
TAF
KRAP 211120Z 2112/2212 15006KT P6SM SKC
     FM211800 18015G25KT P6SM SCT200
     FM220700 32018G28KT P6SM BKN200=



000
FTUS43 KUNR 211100
TAFRAP
TAF
KRAP 211120Z 2112/2212 15006KT P6SM SKC
     FM211800 18015G25KT P6SM SCT200
     FM220700 32018G28KT P6SM BKN200=



000
FTUS43 KUNR 211100
TAFGCC
TAF
KGCC 211120Z 2112/2212 20016G26KT P6SM SKC
     FM211600 21022G32KT P6SM SCT200
     FM220300 30010KT P6SM BKN200=



000
FTUS43 KUNR 210500
TAFGCC
TAF
KGCC 210520Z 2106/2206 20014KT P6SM SKC
     FM211800 21018G28KT P6SM SCT200=



000
FTUS43 KUNR 210500
TAFRAP
TAF
KRAP 210520Z 2106/2206 15006KT P6SM SKC
     FM211800 18017G25KT P6SM SCT200=



000
FTUS43 KUNR 202300
TAFGCC
TAF
KGCC 202320Z 2100/2124 18005KT P6SM SKC
     FM210400 20014KT P6SM SKC
     FM211800 21018G28KT P6SM SCT200=



000
FTUS43 KUNR 202300
TAFRAP
TAF
KRAP 202320Z 2100/2124 17006KT P6SM SKC
     FM211800 18017G25KT P6SM SCT200=



000
FTUS43 KUNR 201700
TAFRAP
TAF
KRAP 201720Z 2018/2118 15014KT P6SM SKC
     FM210100 17006KT P6SM SKC=



000
FTUS43 KUNR 201700
TAFGCC
TAF
KGCC 201720Z 2018/2118 19014KT P6SM SKC=



000
FTUS43 KUNR 201100
TAFGCC
TAF
KGCC 201125Z 2012/2112 18014KT P6SM SKC=



000
FTUS43 KUNR 201100
TAFRAP
TAF
KRAP 201125Z 2012/2112 17012KT P6SM SKC=



000
FTUS43 KUNR 200500
TAFRAP
TAF
KRAP 200520Z 2006/2106 VRB05KT P6SM SKC
     FM201600 17010KT P6SM SKC=



000
FTUS43 KUNR 200500
TAFGCC
TAF
KGCC 200520Z 2006/2106 18014KT P6SM SKC=



000
FTUS43 KUNR 192300
TAFRAP
TAF
KRAP 192332Z 2000/2024 VRB05KT P6SM SKC
     FM201600 17010KT P6SM SKC=



000
FTUS43 KUNR 192300
TAFGCC
TAF
KGCC 192332Z 2000/2024 15006KT P6SM SKC
     FM200500 18014KT P6SM SKC=



000
FTUS43 KUNR 192300
TAFRAP
TAF
KRAP 192332Z 2000/2024 VRB05KT P6SM SKC
     FM201600 17010KT P6SM SKC=



000
FTUS43 KUNR 192300
TAFGCC
TAF
KGCC 192332Z 2000/2024 15006KT P6SM SKC
     FM200500 18014KT P6SM SKC=



000
FTUS43 KUNR 191700
TAFRAP
TAF
KRAP 191720Z 1918/2018 34009KT P6SM SKC
     FM200000 VRB05KT P6SM SKC=



000
FTUS43 KUNR 191700
TAFGCC
TAF
KGCC 191720Z 1918/2018 VRB05KT P6SM SKC
     FM200500 18014KT P6SM SKC=



    US Dept of Commerce
    National Oceanic and Atmospheric Administration
    National Weather Service
    1325 East West Highway
    Silver Spring, MD 20910
    Page Author: NWS Internet Services Team
Disclaimer
Information Quality
Credits
Glossary
Privacy Policy
Freedom of Information Act (FOIA)
About Us
Career Opportunities